Fairfield, Pennsylvania
Current Conditions -  °F | °C
As of 4:17 AM on Monday 24 Nov 2014 (Local Time) from KRYT Reporting Station
Overcast Overcast  
Wind Chill: 61°   Ceiling: 1600
Heat Index: 61°   Visibility: 10mi
Dew Point: 55°   Wind: 9mph
Humidity: 82%   Direction: 230°SW
Pressure: 29.6"   Gusts: NA
Location:  39.79°N, 77.37°W
Report Text: KRYT 240917Z AUTO 23008KT 10SM BKN016 OVC022 16/13 A2960 RMK AO2 $
Loading
Personal Weather Stations






























Interactive Weather Map New forecast layout! Learn more

10-Day Weather Forecast

Advertisements
Track Severe Weather on mobile